Time;durP1;ratioP1;P1;durP2;ratioP2;P2;SDS_P1;SDS_P2;PMS_P1;PMS_P2;Temp;Humidity;BMP_temperature;BMP_pressure;BME280_temperature;BME280_humidity;BME280_pressure;Samples;Min_cycle;Max_cycle;Signal;HPM_P1;HPM_P2
2022/10/03 00:00:20;;;;;;;22.42;5.78;;;;;;;8.97;100.00;102228.78;5049880;28;20036;-81
2022/10/03 00:03:14;;;;;;;27.15;6.40;;;;;;;9.06;100.00;102230.16;5039287;28;20044;-82
2022/10/03 00:06:08;;;;;;;28.90;5.60;;;;;;;9.15;100.00;102227.84;5052818;28;20025;-82
2022/10/03 00:08:33;;;;;;;19.88;5.78;;;;;;;9.15;100.00;102227.84;5045355;28;20036;-83
2022/10/03 00:11:09;;;;;;;24.48;6.75;;;;;;;9.14;100.00;102225.19;5066537;28;20037;-83
2022/10/03 00:13:52;;;;;;;32.40;6.22;;;;;;;9.10;100.00;102229.94;5052572;28;20083;-83
2022/10/03 00:16:28;;;;;;;25.67;6.97;;;;;;;9.14;100.00;102228.78;5048944;28;20021;-83
2022/10/03 00:18:56;;;;;;;25.42;5.60;;;;;;;9.12;100.00;102233.47;5039544;28;20036;-83
2022/10/03 00:21:53;;;;;;;26.33;5.95;;;;;;;8.96;100.00;102237.94;5039684;28;20354;-84
2022/10/03 00:24:30;;;;;;;32.20;6.65;;;;;;;8.95;100.00;102237.06;5064579;28;20092;-83
2022/10/03 00:27:14;;;;;;;28.38;6.50;;;;;;;8.87;100.00;102236.56;5050301;28;20029;-84
2022/10/03 00:29:51;;;;;;;28.23;6.80;;;;;;;8.92;100.00;102241.75;5058914;28;20091;-84
2022/10/03 00:32:22;;;;;;;31.67;7.80;;;;;;;9.03;100.00;102244.84;5039401;28;20121;-84
2022/10/03 00:35:28;;;;;;;21.98;5.88;;;;;;;8.73;100.00;102237.22;5056365;28;20037;-84
2022/10/03 00:38:12;;;;;;;32.03;7.45;;;;;;;8.65;100.00;102251.22;5055027;28;20040;-84
2022/10/03 00:41:03;;;;;;;35.78;8.18;;;;;;;8.69;100.00;102249.28;5053244;28;20480;-84
2022/10/03 00:43:54;;;;;;;25.55;7.47;;;;;;;8.76;100.00;102244.38;5056669;28;20488;-83
2022/10/03 00:46:44;;;;;;;23.90;6.93;;;;;;;8.79;100.00;102258.78;5038938;28;20037;-84
2022/10/03 00:49:31;;;;;;;30.63;6.82;;;;;;;8.81;100.00;102261.44;5055060;28;20036;-84
2022/10/03 00:52:34;;;;;;;31.58;7.40;;;;;;;8.67;100.00;102262.09;5039117;28;20100;-84
2022/10/03 00:55:25;;;;;;;33.08;6.93;;;;;;;8.44;100.00;102265.91;5054990;28;20043;-83
2022/10/03 00:58:09;;;;;;;29.35;6.40;;;;;;;8.36;100.00;102271.72;5045295;28;20022;-83
2022/10/03 01:00:35;;;;;;;18.73;5.97;;;;;;;8.35;100.00;102261.75;5041586;28;20071;-83
2022/10/03 01:03:31;;;;;;;26.60;6.78;;;;;;;8.52;100.00;102262.84;5059864;28;20044;-83
2022/10/03 01:06:09;;;;;;;29.33;6.68;;;;;;;8.61;100.00;102268.75;5057154;28;20037;-83
2022/10/03 01:09:05;;;;;;;25.63;6.65;;;;;;;8.34;100.00;102272.75;5057103;28;20527;-83
2022/10/03 01:12:00;;;;;;;20.20;6.15;;;;;;;8.31;100.00;102271.03;5054970;28;20032;-82
2022/10/03 01:14:48;;;;;;;22.65;6.28;;;;;;;8.20;100.00;102279.75;5010807;28;20068;-82
2022/10/03 01:17:13;;;;;;;34.83;6.28;;;;;;;8.20;100.00;102281.56;5054143;28;20045;-82
2022/10/03 01:20:13;;;;;;;32.45;7.00;;;;;;;8.39;100.00;102281.59;5057920;28;20074;-83
2022/10/03 01:22:58;;;;;;;28.23;7.35;;;;;;;8.44;100.00;102274.09;5054316;28;20056;-82
2022/10/03 01:25:49;;;;;;;27.95;7.22;;;;;;;8.47;100.00;102279.44;5069480;28;20061;-82
2022/10/03 01:32:01;;;;;;;21.90;7.30;;;;;;;8.51;100.00;102285.63;5059248;28;20036;-82
2022/10/03 01:34:36;;;;;;;21.33;6.78;;;;;;;8.49;100.00;102293.88;5058633;28;20519;-83
2022/10/03 01:37:31;;;;;;;24.13;6.75;;;;;;;8.45;100.00;102292.28;5060824;28;20038;-83
2022/10/03 01:40:07;;;;;;;32.53;7.38;;;;;;;8.37;100.00;102287.13;5057268;28;20513;-83
2022/10/03 01:42:42;;;;;;;19.50;7.05;;;;;;;8.47;100.00;102293.06;5048392;28;20033;-83
2022/10/03 01:45:45;;;;;;;26.73;7.10;;;;;;;8.44;100.00;102290.47;5048338;28;20043;-83
2022/10/03 01:48:16;;;;;;;20.90;7.22;;;;;;;8.45;100.00;102290.41;5040212;28;20417;-84
2022/10/03 01:50:54;;;;;;;32.05;7.30;;;;;;;8.43;100.00;102294.19;5040222;28;20473;-83
2022/10/03 01:53:22;;;;;;;21.35;6.72;;;;;;;8.46;100.00;102297.66;5051308;28;20034;-83
2022/10/03 01:55:51;;;;;;;25.35;8.68;;;;;;;8.42;100.00;102290.53;5052080;28;20113;-83
2022/10/03 01:58:44;;;;;;;29.33;8.18;;;;;;;8.35;100.00;102288.19;5057861;28;20029;-83
2022/10/03 02:01:23;;;;;;;29.60;8.30;;;;;;;8.44;100.00;102285.03;5034103;28;20041;-83
2022/10/03 02:04:03;;;;;;;35.80;9.98;;;;;;;8.44;100.00;102283.19;5057798;28;20029;-83
2022/10/03 02:06:46;;;;;;;27.05;9.20;;;;;;;8.52;100.00;102295.59;5036648;28;20175;-83
2022/10/03 02:09:30;;;;;;;31.20;8.55;;;;;;;8.50;100.00;102298.41;5041981;28;20029;-82
2022/10/03 02:12:21;;;;;;;26.85;7.93;;;;;;;8.50;100.00;102306.59;5058440;28;20036;-83
2022/10/03 02:15:13;;;;;;;28.13;8.40;;;;;;;8.48;100.00;102310.31;5050764;28;20032;-83
2022/10/03 02:17:51;;;;;;;27.15;8.05;;;;;;;8.49;100.00;102306.66;5042099;28;20037;-83
2022/10/03 02:21:08;;;;;;;24.23;9.00;;;;;;;8.50;100.00;102305.72;5045260;28;20100;-82
2022/10/03 02:23:33;;;;;;;17.45;8.95;;;;;;;8.41;100.00;102301.50;4968310;28;20085;-83
2022/10/03 02:26:21;;;;;;;25.48;9.27;;;;;;;8.45;100.00;102301.34;5038636;28;20041;-83
2022/10/03 02:29:14;;;;;;;22.10;8.35;;;;;;;8.46;100.00;102303.13;5041553;28;20025;-82
2022/10/03 02:32:26;;;;;;;25.70;9.45;;;;;;;8.46;100.00;102305.84;5065460;28;20085;-82
2022/10/03 02:35:25;;;;;;;32.85;10.15;;;;;;;8.48;100.00;102307.59;5060164;28;20056;-82
2022/10/03 02:38:19;;;;;;;39.75;9.25;;;;;;;8.45;100.00;102308.66;5061705;28;20506;-82
2022/10/03 02:41:23;;;;;;;33.65;10.35;;;;;;;8.50;100.00;102314.78;5057763;28;20041;-82
2022/10/03 02:43:48;;;;;;;;;;;;;;;8.48;100.00;102311.22;5050915;28;20029;-82
2022/10/03 02:46:38;;;;;;;31.52;8.73;;;;;;;8.44;100.00;102309.59;5051134;28;19919;-81
2022/10/03 02:49:34;;;;;;;30.98;10.57;;;;;;;8.32;100.00;102304.69;5061424;28;20028;-82
2022/10/03 02:52:35;;;;;;;28.30;10.48;;;;;;;8.30;100.00;102304.75;5045304;28;20033;-81
2022/10/03 02:55:38;;;;;;;44.63;10.15;;;;;;;8.34;100.00;102305.50;5038222;28;20043;-83
2022/10/03 02:58:22;;;;;;;35.28;10.45;;;;;;;8.32;100.00;102305.56;5053600;28;20103;-84
2022/10/03 03:01:24;;;;;;;33.22;9.98;;;;;;;8.34;100.00;102308.22;5052651;28;20041;-83
2022/10/03 03:03:58;;;;;;;41.53;10.40;;;;;;;8.35;100.00;102312.72;5054571;28;20098;-83
2022/10/03 03:06:40;;;;;;;34.20;10.70;;;;;;;8.33;100.00;102309.16;5039655;28;20120;-82
2022/10/03 03:09:24;;;;;;;30.42;10.25;;;;;;;8.27;100.00;102316.69;5056690;28;20028;-83
2022/10/03 03:12:14;;;;;;;33.83;10.75;;;;;;;8.14;100.00;102304.56;5065562;28;20044;-82
2022/10/03 03:15:11;;;;;;;33.20;10.77;;;;;;;8.18;100.00;102299.84;5036762;28;20088;-82
2022/10/03 03:17:53;;;;;;;39.50;11.63;;;;;;;8.21;100.00;102305.16;5053399;28;20102;-82
2022/10/03 03:20:53;;;;;;;32.92;10.85;;;;;;;8.18;100.00;102308.03;5064474;28;20032;-82
2022/10/03 03:23:56;;;;;;;30.70;11.30;;;;;;;8.18;100.00;102308.94;5006550;28;20037;-83
2022/10/03 03:26:34;;;;;;;31.95;10.35;;;;;;;8.22;100.00;102305.09;5048609;28;20564;-82
2022/10/03 03:29:18;;;;;;;29.20;10.65;;;;;;;8.28;100.00;102312.13;5052225;28;20412;-82
2022/10/03 03:32:00;;;;;;;30.58;10.43;;;;;;;8.26;100.00;102317.66;5063364;28;20037;-82
2022/10/03 03:34:26;;;;;;;20.80;9.73;;;;;;;8.27;100.00;102316.69;5046324;28;20546;-82
2022/10/03 03:36:54;;;;;;;30.38;9.50;;;;;;;8.15;100.00;102317.25;5049730;28;20041;-82
2022/10/03 03:39:38;;;;;;;32.42;11.15;;;;;;;8.18;100.00;102327.13;5033759;28;20057;-82
2022/10/03 03:42:15;;;;;;;28.77;8.95;;;;;;;8.14;100.00;102325.50;5028483;28;20397;-82
2022/10/03 03:45:01;;;;;;;27.50;9.25;;;;;;;8.18;100.00;102328.03;5062180;28;20039;-82
2022/10/03 03:48:02;;;;;;;52.10;10.40;;;;;;;8.13;100.00;102326.47;5047594;28;20124;-81
2022/10/03 03:50:27;;;;;;;31.25;11.05;;;;;;;8.07;100.00;102320.31;5047988;28;20131;-82
2022/10/03 03:53:11;;;;;;;46.13;10.73;;;;;;;8.13;100.00;102321.88;5038137;28;20056;-81
2022/10/03 03:56:03;;;;;;;35.80;12.07;;;;;;;8.17;100.00;102322.66;5037235;28;20029;-81
2022/10/03 03:58:38;;;;;;;36.65;11.05;;;;;;;8.21;100.00;102322.41;5032230;28;20060;-83
2022/10/03 04:02:05;;;;;;;29.42;9.90;;;;;;;8.28;100.00;102329.38;5042626;28;20040;-82
2022/10/03 04:04:55;;;;;;;20.35;10.13;;;;;;;8.33;100.00;102320.09;4998636;28;20046;-82
2022/10/03 04:07:35;;;;;;;36.05;10.65;;;;;;;8.27;100.00;102319.41;4980041;28;20568;-82
2022/10/03 04:10:24;;;;;;;25.70;10.40;;;;;;;8.32;100.00;102323.78;5058747;28;20049;-82
2022/10/03 04:13:02;;;;;;;33.70;10.80;;;;;;;8.25;100.00;102320.47;5061717;28;20037;-82
2022/10/03 04:15:50;;;;;;;33.25;11.25;;;;;;;8.27;100.00;102321.25;5066673;28;20033;-82
2022/10/03 04:21:19;;;;;;;30.52;10.50;;;;;;;8.22;100.00;102321.47;5051904;28;20376;-84
2022/10/03 04:24:19;;;;;;;36.35;12.65;;;;;;;8.23;100.00;102331.44;5050168;28;20108;-82
2022/10/03 04:27:00;;;;;;;36.40;11.07;;;;;;;8.18;100.00;102328.03;5052613;28;20380;-84
2022/10/03 04:29:29;;;;;;;32.28;11.05;;;;;;;8.22;100.00;102339.69;5048163;28;20029;-82
2022/10/03 04:32:13;;;;;;;44.60;11.60;;;;;;;8.19;100.00;102332.53;5072261;28;20041;-81
2022/10/03 04:35:07;;;;;;;40.40;11.68;;;;;;;8.22;100.00;102332.38;5046658;28;21485;-82
2022/10/03 04:37:43;;;;;;;;;;;;;;;8.21;100.00;102336.06;5039658;28;20086;-82
2022/10/03 04:40:37;;;;;;;38.95;10.93;;;;;;;8.16;100.00;102329.06;5055914;28;19916;-83
2022/10/03 04:43:12;;;;;;;35.10;12.00;;;;;;;8.16;100.00;102324.47;5056686;28;20035;-81
2022/10/03 04:45:59;;;;;;;34.10;10.75;;;;;;;8.21;100.00;102333.31;5054036;28;20043;-82
2022/10/03 04:48:49;;;;;;;29.92;11.30;;;;;;;8.17;100.00;102339.91;5043983;28;20025;-82
2022/10/03 04:51:50;;;;;;;40.47;11.75;;;;;;;8.14;100.00;102334.56;5034122;28;20569;-82
2022/10/03 04:54:25;;;;;;;44.40;12.20;;;;;;;8.23;100.00;102336.00;5058961;28;20063;-83
2022/10/03 04:56:59;;;;;;;33.75;11.10;;;;;;;8.13;100.00;102338.25;5062296;28;20035;-83
2022/10/03 04:59:37;;;;;;;39.10;10.75;;;;;;;8.03;100.00;102332.31;5060729;28;20029;-83
2022/10/03 05:02:13;;;;;;;29.88;10.05;;;;;;;8.04;100.00;102341.41;5059898;28;20515;-82
2022/10/03 05:04:57;;;;;;;40.92;10.52;;;;;;;8.00;100.00;102337.94;5040681;28;20485;-82
2022/10/03 05:07:50;;;;;;;33.50;10.45;;;;;;;7.94;100.00;102343.66;5038464;28;20056;-82
2022/10/03 05:10:21;;;;;;;33.92;10.50;;;;;;;7.99;100.00;102343.44;5043081;28;20056;-81
2022/10/03 05:12:52;;;;;;;31.02;10.98;;;;;;;7.90;100.00;102340.19;5052503;28;20040;-82
2022/10/03 05:15:39;;;;;;;28.58;11.65;;;;;;;7.92;100.00;102342.84;5058858;28;20033;-82
2022/10/03 05:18:18;;;;;;;38.80;11.05;;;;;;;7.95;100.00;102337.22;5043921;28;20028;-83
2022/10/03 05:20:56;;;;;;;39.78;10.25;;;;;;;7.97;100.00;102346.25;5059766;28;20104;-83
2022/10/03 05:23:33;;;;;;;30.83;10.20;;;;;;;7.97;100.00;102354.44;5058623;28;20060;-83
2022/10/03 05:26:29;;;;;;;40.95;10.35;;;;;;;7.89;100.00;102352.03;5058629;28;20108;-83
2022/10/03 05:29:19;;;;;;;27.13;9.25;;;;;;;7.68;100.00;102362.03;5044479;28;20037;-83
2022/10/03 05:31:55;;;;;;;36.00;9.75;;;;;;;7.66;100.00;102357.59;5049274;28;20040;-83
2022/10/03 05:34:52;;;;;;;26.17;10.05;;;;;;;7.67;100.00;102359.34;5044749;28;20619;-83
2022/10/03 05:37:28;;;;;;;28.17;10.45;;;;;;;7.66;100.00;102358.47;5045101;28;20120;-82
2022/10/03 05:39:56;;;;;;;24.65;9.93;;;;;;;7.69;100.00;102360.16;5055680;28;20040;-81
2022/10/03 05:42:54;;;;;;;28.15;10.00;;;;;;;7.72;100.00;102355.50;5059053;28;20524;-81
2022/10/03 05:45:30;;;;;;;33.00;11.50;;;;;;;7.69;100.00;102358.34;5061461;28;20482;-82
2022/10/03 05:48:13;;;;;;;27.80;10.07;;;;;;;7.72;100.00;102362.78;5041907;28;20120;-82
2022/10/03 05:51:15;;;;;;;28.17;9.57;;;;;;;7.71;100.00;102377.38;5038491;28;20495;-81
2022/10/03 05:53:59;;;;;;;33.55;11.50;;;;;;;7.65;100.00;102372.19;5057881;28;20037;-81
2022/10/03 05:56:57;;;;;;;30.55;10.30;;;;;;;7.69;100.00;102376.53;5057591;28;20037;-80
2022/10/03 05:59:29;;;;;;;30.45;10.73;;;;;;;7.82;100.00;102377.81;5058724;28;20037;-82
2022/10/03 06:02:27;;;;;;;27.58;10.93;;;;;;;7.82;100.00;102382.34;5060862;28;20107;-82
2022/10/03 06:05:20;;;;;;;31.40;10.55;;;;;;;7.87;100.00;102373.03;4953575;28;20602;-82
2022/10/03 06:08:04;;;;;;;43.88;11.57;;;;;;;7.97;100.00;102388.97;5039369;28;20505;-81
2022/10/03 06:10:43;;;;;;;30.17;11.35;;;;;;;7.97;100.00;102392.63;5055572;28;20025;-82
2022/10/03 06:13:45;;;;;;;31.20;11.15;;;;;;;8.05;100.00;102398.63;5058486;28;20033;-80
2022/10/03 06:16:48;;;;;;;34.67;12.15;;;;;;;7.93;100.00;102388.22;5059391;28;20024;-81
2022/10/03 06:19:40;;;;;;;25.65;11.20;;;;;;;8.02;100.00;102386.97;5013554;28;20048;-82
2022/10/03 06:22:27;;;;;;;35.92;11.07;;;;;;;7.98;100.00;102388.03;5059808;28;20040;-81
2022/10/03 06:25:20;;;;;;;28.77;10.45;;;;;;;7.99;100.00;102384.38;5070149;28;20169;-80
2022/10/03 06:28:04;;;;;;;;;;;;;;;7.97;100.00;102391.69;5057073;28;20039;-80
2022/10/03 06:30:55;;;;;;;34.70;12.50;;;;;;;8.10;100.00;102384.78;5040359;28;19916;-80
2022/10/03 06:33:40;;;;;;;42.90;11.30;;;;;;;8.29;100.00;102395.75;5055731;28;20032;-80
2022/10/03 06:36:35;;;;;;;43.90;13.85;;;;;;;8.44;100.00;102396.94;5035599;28;20480;-81
2022/10/03 06:39:06;;;;;;;38.85;13.65;;;;;;;8.55;100.00;102397.34;5053242;28;20033;-81
2022/10/03 06:42:25;;;;;;;31.50;12.13;;;;;;;8.62;100.00;102397.94;5041958;28;20029;-82
2022/10/03 06:45:15;;;;;;;33.10;12.25;;;;;;;8.77;100.00;102402.72;5058821;28;20044;-82
2022/10/03 06:48:18;;;;;;;32.85;13.07;;;;;;;8.82;100.00;102397.00;5042591;28;20036;-80
2022/10/03 06:51:11;;;;;;;38.45;11.35;;;;;;;8.97;100.00;102406.34;5037606;28;20446;-82
2022/10/03 06:54:04;;;;;;;32.50;11.80;;;;;;;8.97;100.00;102406.34;5036924;28;20033;-81
2022/10/03 06:56:39;;;;;;;40.47;12.70;;;;;;;9.14;100.00;102414.59;5056870;28;20128;-80
2022/10/03 06:59:24;;;;;;;25.23;11.02;;;;;;;9.22;100.00;102422.44;5035920;28;20451;-80
2022/10/03 07:02:21;;;;;;;35.92;11.90;;;;;;;9.34;100.00;102413.63;5057379;28;20076;-82
2022/10/03 07:05:24;;;;;;;33.60;11.10;;;;;;;9.44;100.00;102424.13;5057197;28;20401;-81
2022/10/03 07:08:06;;;;;;;26.23;10.00;;;;;;;9.53;100.00;102420.94;5056542;28;20377;-82
2022/10/03 07:10:43;;;;;;;38.78;12.18;;;;;;;9.54;100.00;102414.50;5056306;28;20025;-83
2022/10/03 07:13:42;;;;;;;31.05;11.68;;;;;;;9.71;100.00;102424.63;5025537;28;20251;-82
2022/10/03 07:16:38;;;;;;;26.60;12.23;;;;;;;9.92;100.00;102426.25;5032770;28;20041;-82
2022/10/03 07:19:28;;;;;;;29.85;11.77;;;;;;;10.09;100.00;102424.50;5070784;28;20060;-82
2022/10/03 07:22:13;;;;;;;30.35;12.63;;;;;;;10.17;100.00;102419.53;5055744;28;20400;-82
2022/10/03 07:25:18;;;;;;;27.92;11.80;;;;;;;10.26;100.00;102424.53;5053617;28;20036;-81
2022/10/03 07:27:57;;;;;;;31.88;12.65;;;;;;;10.38;100.00;102430.31;5056000;28;20055;-82
2022/10/03 07:30:26;;;;;;;40.78;12.45;;;;;;;10.29;100.00;102432.53;5051266;28;20021;-83
2022/10/03 07:33:25;;;;;;;35.90;12.93;;;;;;;10.43;100.00;102426.38;5056612;28;20051;-84
2022/10/03 07:39:11;;;;;;;34.17;12.02;;;;;;;10.61;100.00;102431.84;5050637;28;20543;-82
2022/10/03 07:42:49;;;;;;;29.20;10.90;;;;;;;10.62;100.00;102436.34;5050668;28;20123;-82
2022/10/03 07:45:21;;;;;;;31.38;12.02;;;;;;;10.89;100.00;102438.53;4964047;28;20491;-81
2022/10/03 07:47:59;;;;;;;29.88;11.57;;;;;;;11.20;100.00;102441.38;4978297;28;20121;-81
2022/10/03 07:50:31;;;;;;;32.80;11.05;;;;;;;11.17;100.00;102443.41;5033887;28;20032;-82
2022/10/03 07:52:59;;;;;;;27.95;10.80;;;;;;;11.31;100.00;102448.09;5069311;28;20039;-82
2022/10/03 07:56:10;;;;;;;33.20;10.88;;;;;;;11.57;100.00;102455.72;5057367;28;20047;-82
2022/10/03 07:58:41;;;;;;;24.83;10.85;;;;;;;11.83;100.00;102447.81;5052779;28;20400;-83
2022/10/03 08:01:26;;;;;;;31.08;11.27;;;;;;;11.82;100.00;102453.41;5054858;28;20037;-82
2022/10/03 08:04:10;;;;;;;26.75;10.80;;;;;;;12.25;100.00;102453.66;5054780;28;20518;-83
2022/10/03 08:06:42;;;;;;;26.15;8.30;;;;;;;12.32;100.00;102461.41;5039076;28;20056;-83
2022/10/03 08:09:30;;;;;;;21.45;8.75;;;;;;;12.52;100.00;102466.66;5054731;28;20455;-82
2022/10/03 08:12:22;;;;;;;26.83;9.02;;;;;;;12.68;100.00;102471.09;5041406;28;20065;-83
2022/10/03 08:15:20;;;;;;;22.55;9.02;;;;;;;13.47;100.00;102479.03;5060049;28;20674;-83
2022/10/03 08:18:21;;;;;;;22.20;8.60;;;;;;;13.45;100.00;102478.25;5058159;28;20068;-82
2022/10/03 08:20:52;;;;;;;29.65;9.52;;;;;;;13.94;100.00;102491.50;5055841;28;20025;-82
2022/10/03 08:23:32;;;;;;;24.20;7.88;;;;;;;14.29;100.00;102488.22;5058311;28;20040;-83
2022/10/03 08:26:26;;;;;;;22.90;8.18;;;;;;;13.78;100.00;102489.75;5058725;28;20037;-83
2022/10/03 08:29:14;;;;;;;20.25;8.27;;;;;;;14.48;100.00;102483.22;5057767;28;20046;-83
2022/10/03 08:31:48;;;;;;;29.20;8.05;;;;;;;14.64;100.00;102480.31;5058386;28;20032;-80
2022/10/03 08:34:34;;;;;;;22.60;7.82;;;;;;;14.72;100.00;102465.94;5059304;28;20033;-81
2022/10/03 08:37:24;;;;;;;25.75;7.85;;;;;;;15.17;100.00;102471.94;5057914;28;20045;-81
2022/10/03 08:40:10;;;;;;;20.27;7.13;;;;;;;15.29;100.00;102474.78;5040932;28;20029;-82
2022/10/03 08:42:53;;;;;;;23.77;6.90;;;;;;;15.29;100.00;102470.13;5040129;28;20096;-82
2022/10/03 08:45:51;;;;;;;21.02;6.55;;;;;;;15.29;100.00;102461.00;5072840;28;20071;-82
2022/10/03 08:48:42;;;;;;;20.40;6.78;;;;;;;15.57;100.00;102463.44;5034672;28;20037;-82
2022/10/03 08:51:48;;;;;;;15.30;6.13;;;;;;;15.68;100.00;102467.31;5057897;28;20449;-82
2022/10/03 08:54:32;;;;;;;21.17;6.45;;;;;;;16.23;100.00;102470.53;5057154;28;20040;-82
2022/10/03 08:57:35;;;;;;;16.40;6.30;;;;;;;16.20;100.00;102462.47;5058112;28;20041;-82
2022/10/03 09:00:19;;;;;;;21.90;7.07;;;;;;;15.88;100.00;102460.31;5052544;28;20052;-82
2022/10/03 09:02:59;;;;;;;13.80;5.70;;;;;;;16.05;100.00;102473.69;5044078;28;20029;-82
2022/10/03 09:05:57;;;;;;;18.83;6.78;;;;;;;16.38;100.00;102473.97;5057607;28;20032;-82
2022/10/03 09:08:44;;;;;;;20.85;6.05;;;;;;;16.58;100.00;102470.53;5057208;28;20041;-82
2022/10/03 09:11:41;;;;;;;26.98;5.95;;;;;;;16.79;100.00;102473.50;5040325;28;20033;-82
2022/10/03 09:14:10;;;;;;;15.30;5.13;;;;;;;16.78;100.00;102476.38;5057396;28;20033;-82
2022/10/03 09:16:50;;;;;;;22.60;6.13;;;;;;;16.76;100.00;102473.72;5058987;28;20037;-83
2022/10/03 09:19:28;;;;;;;16.75;5.00;;;;;;;16.52;100.00;102469.13;5057962;28;20045;-83
2022/10/03 09:22:18;;;;;;;14.35;4.72;;;;;;;16.76;100.00;102470.06;5074671;28;20048;-83
2022/10/03 09:24:44;;;;;;;19.35;5.30;;;;;;;16.93;100.00;102468.78;5077417;28;20041;-81
2022/10/03 09:27:37;;;;;;;16.85;5.63;;;;;;;16.83;100.00;102472.22;5055677;28;20032;-83
2022/10/03 09:30:21;;;;;;;17.15;4.97;;;;;;;16.90;100.00;102464.34;5064774;28;20104;-84
2022/10/03 09:33:12;;;;;;;16.88;4.13;;;;;;;17.17;100.00;102464.00;5028363;28;20048;-83
2022/10/03 09:35:56;;;;;;;19.48;4.22;;;;;;;17.06;100.00;102464.88;5076129;28;20025;-84
2022/10/03 09:38:43;;;;;;;14.10;4.60;;;;;;;17.55;100.00;102467.41;5054027;28;20033;-84
2022/10/03 09:41:30;;;;;;;14.48;3.70;;;;;;;17.10;100.00;102471.03;5049230;28;20063;-84
2022/10/03 09:44:35;;;;;;;17.17;3.28;;;;;;;17.17;100.00;102465.91;5043407;28;20476;-82
2022/10/03 09:47:22;;;;;;;11.60;2.80;;;;;;;17.40;100.00;102455.72;5075284;28;20064;-83
2022/10/03 09:49:59;;;;;;;20.08;2.92;;;;;;;17.56;100.00;102446.97;5038527;28;20033;-81
2022/10/03 09:52:40;;;;;;;13.05;3.15;;;;;;;17.19;100.00;102447.28;5064415;28;20036;-82
2022/10/03 09:55:20;;;;;;;11.00;3.42;;;;;;;18.26;100.00;102454.00;5063856;28;20045;-82
2022/10/03 09:57:55;;;;;;;19.20;4.70;;;;;;;17.91;100.00;102445.97;5051889;28;20040;-82
2022/10/03 10:01:05;;;;;;;19.08;3.65;;;;;;;17.18;100.00;102435.31;5051243;28;20037;-81
2022/10/03 10:03:46;;;;;;;12.52;3.08;;;;;;;17.70;100.00;102430.09;5069047;28;20041;-82
2022/10/03 10:06:42;;;;;;;12.82;2.97;;;;;;;17.55;100.00;102436.94;5051492;28;20041;-84
2022/10/03 10:09:50;;;;;;;8.15;1.98;;;;;;;17.37;100.00;102436.56;5042871;28;20400;-82
2022/10/03 10:12:31;;;;;;;13.20;2.90;;;;;;;17.33;100.00;102440.59;5024124;28;20037;-83
2022/10/03 10:15:02;;;;;;;12.90;2.97;;;;;;;17.82;100.00;102434.59;5067289;28;20535;-83
2022/10/03 10:18:04;;;;;;;15.55;3.03;;;;;;;17.90;100.00;102430.31;5044182;28;20033;-83
2022/10/03 10:21:00;;;;;;;11.98;1.50;;;;;;;17.62;100.00;102427.97;5061306;28;20033;-83
2022/10/03 10:23:31;;;;;;;13.65;2.10;;;;;;;17.05;100.00;102427.16;5045117;28;20035;-83
2022/10/03 10:26:03;;;;;;;11.10;1.70;;;;;;;16.92;100.00;102423.59;5063223;28;20037;-82
2022/10/03 10:28:53;;;;;;;11.38;2.45;;;;;;;17.10;100.00;102432.28;5063222;28;20130;-82
2022/10/03 10:31:43;;;;;;;11.70;1.17;;;;;;;16.78;100.00;102432.13;5062460;28;20484;-80
2022/10/03 10:34:12;;;;;;;11.02;1.92;;;;;;;17.00;100.00;102431.28;5059137;28;20397;-80
2022/10/03 10:37:08;;;;;;;14.70;1.88;;;;;;;16.79;100.00;102423.69;5060140;28;20036;-80
2022/10/03 10:39:44;;;;;;;11.23;2.17;;;;;;;16.98;100.00;102425.88;5057333;28;20033;-81
2022/10/03 10:42:47;;;;;;;9.68;1.90;;;;;;;17.31;100.00;102424.09;5057281;28;20098;-82
2022/10/03 10:45:24;;;;;;;13.73;2.38;;;;;;;17.26;100.00;102420.84;5058707;28;20043;-80
2022/10/03 10:48:24;;;;;;;13.77;2.30;;;;;;;16.97;100.00;102426.91;5059390;28;20033;-82
2022/10/03 10:51:27;;;;;;;12.65;1.83;;;;;;;17.42;100.00;102424.09;5042931;28;20052;-83
2022/10/03 10:54:37;;;;;;;11.38;2.33;;;;;;;17.64;100.00;102416.75;5058132;28;20532;-82
2022/10/03 10:57:02;;;;;;;8.63;2.00;;;;;;;18.01;100.00;102427.53;5040520;28;20071;-82
2022/10/03 11:00:06;;;;;;;15.80;2.22;;;;;;;18.18;100.00;102424.19;5059134;28;20041;-82
2022/10/03 11:02:38;;;;;;;12.85;1.88;;;;;;;17.93;100.00;102425.41;5059822;28;20060;-82
2022/10/03 11:05:15;;;;;;;12.02;1.90;;;;;;;17.88;100.00;102421.28;5057625;28;20029;-82
2022/10/03 11:08:13;;;;;;;11.25;1.70;;;;;;;17.61;100.00;102417.91;5064357;28;20045;-81
2022/10/03 11:10:58;;;;;;;15.50;1.80;;;;;;;17.22;100.00;102422.13;4993652;28;20064;-81
2022/10/03 11:13:25;;;;;;;5.07;1.70;;;;;;;17.71;100.00;102422.66;5053648;28;20087;-81
2022/10/03 11:16:14;;;;;;;11.95;1.50;;;;;;;18.00;100.00;102411.88;5056919;28;20033;-81
2022/10/03 11:19:07;;;;;;;10.90;1.63;;;;;;;17.90;100.00;102413.69;5056786;28;20029;-81
2022/10/03 11:21:42;;;;;;;;;;;;;;;17.48;100.00;102403.34;5058186;28;20040;-81
2022/10/03 11:24:25;;;;;;;6.60;1.20;;;;;;;17.67;100.00;102402.66;5057738;28;20011;-81
2022/10/03 11:27:10;;;;;;;8.98;1.35;;;;;;;17.89;100.00;102410.06;5057606;28;20056;-82
2022/10/03 11:30:17;;;;;;;10.23;1.23;;;;;;;18.02;100.00;102409.88;5057170;28;20032;-81
2022/10/03 11:32:52;;;;;;;7.70;1.13;;;;;;;18.25;100.00;102407.00;5058229;28;20049;-81
2022/10/03 11:35:30;;;;;;;8.40;1.40;;;;;;;18.30;100.00;102413.00;5062107;28;20028;-82
2022/10/03 11:38:04;;;;;;;12.85;1.40;;;;;;;17.93;100.00;102399.59;5063016;28;20106;-81
2022/10/03 11:40:42;;;;;;;8.55;1.10;;;;;;;18.26;100.00;102395.75;5043287;28;20029;-81
2022/10/03 11:43:44;;;;;;;9.05;1.30;;;;;;;18.18;100.00;102403.88;5045183;28;20021;-82
2022/10/03 11:46:10;;;;;;;6.38;0.90;;;;;;;18.36;100.00;102402.28;5055620;28;20060;-81
2022/10/03 11:48:51;;;;;;;11.77;1.10;;;;;;;18.15;100.00;102398.59;5056401;28;20033;-81
2022/10/03 11:51:34;;;;;;;7.30;1.08;;;;;;;18.17;100.00;102396.59;5056591;28;20544;-81
2022/10/03 11:54:26;;;;;;;14.60;1.63;;;;;;;18.10;100.00;102401.78;5024013;28;20026;-81
2022/10/03 11:57:22;;;;;;;9.05;1.58;;;;;;;17.98;100.00;102409.25;5058718;28;20033;-81
2022/10/03 11:59:47;;;;;;;12.32;1.30;;;;;;;17.98;100.00;102408.38;5040474;28;20029;-81
2022/10/03 12:02:19;;;;;;;7.10;1.20;;;;;;;17.84;100.00;102409.53;5057537;28;20366;-81
2022/10/03 12:04:53;;;;;;;10.88;1.10;;;;;;;18.29;100.00;102398.28;5057342;28;20040;-81
2022/10/03 12:10:29;;;;;;;7.28;1.05;;;;;;;17.81;100.00;102407.03;5059266;28;20029;-82
2022/10/03 12:12:56;;;;;;;7.82;1.10;;;;;;;17.62;100.00;102400.25;5040452;28;20036;-82
2022/10/03 12:15:44;;;;;;;9.85;1.58;;;;;;;17.60;100.00;102409.72;5059207;28;20029;-81
2022/10/03 12:18:43;;;;;;;8.63;1.23;;;;;;;17.55;100.00;102403.69;5056350;28;20021;-81
2022/10/03 12:21:09;;;;;;;6.55;1.42;;;;;;;17.53;100.00;102401.06;5056437;28;20064;-82
2022/10/03 12:24:17;;;;;;;5.30;1.02;;;;;;;18.27;100.00;102393.91;5057072;28;20033;-82
2022/10/03 12:27:05;;;;;;;5.18;1.13;;;;;;;17.90;100.00;102391.53;5044661;28;20033;-81
2022/10/03 12:29:35;;;;;;;8.27;1.40;;;;;;;17.50;100.00;102400.44;5038225;28;20036;-81
2022/10/03 12:32:16;;;;;;;9.02;1.30;;;;;;;17.36;100.00;102398.81;5049450;28;20477;-81
2022/10/03 12:34:51;;;;;;;10.65;1.58;;;;;;;17.37;100.00;102395.91;5039925;28;20024;-82
2022/10/03 12:37:48;;;;;;;9.57;1.45;;;;;;;17.49;100.00;102388.47;5055033;28;20057;-81
2022/10/03 12:40:35;;;;;;;10.90;1.25;;;;;;;17.81;100.00;102393.19;5047758;28;20057;-80
2022/10/03 12:43:34;;;;;;;8.50;1.45;;;;;;;17.91;100.00;102398.84;5033710;28;20029;-81
2022/10/03 12:46:43;;;;;;;8.23;1.27;;;;;;;17.75;100.00;102391.78;5055834;28;20036;-81
2022/10/03 12:49:46;;;;;;;11.48;1.08;;;;;;;17.75;100.00;102393.69;5043878;28;20170;-82